createdAt,value
2023-03-17T00:01:09.822Z,7.60
2023-03-17T00:05:24.207Z,7.60
2023-03-17T00:09:28.890Z,7.50
2023-03-17T00:13:32.142Z,7.50
2023-03-17T00:17:36.568Z,7.50
2023-03-17T00:21:40.179Z,7.50
2023-03-17T00:25:45.489Z,7.40
2023-03-17T00:29:48.831Z,7.50
2023-03-17T00:33:53.999Z,7.50
2023-03-17T00:37:59.527Z,7.50
2023-03-17T00:42:04.442Z,7.50
2023-03-17T00:46:13.561Z,7.50
2023-03-17T00:50:18.772Z,7.50
2023-03-17T00:54:22.072Z,7.50
2023-03-17T00:58:28.884Z,7.50
2023-03-17T01:02:33.010Z,7.50
2023-03-17T01:06:35.996Z,7.60
2023-03-17T01:10:39.220Z,7.60
2023-03-17T01:14:43.738Z,7.60
2023-03-17T01:18:46.826Z,7.60
2023-03-17T01:22:50.567Z,7.60
2023-03-17T01:26:53.537Z,7.60
2023-03-17T01:30:57.921Z,7.60
2023-03-17T01:35:00.970Z,7.50
2023-03-17T01:39:05.466Z,7.50
2023-03-17T01:43:19.876Z,7.50
2023-03-17T01:47:26.622Z,7.50
2023-03-17T01:51:34.453Z,7.50
2023-03-17T01:55:37.950Z,7.50
2023-03-17T01:59:46.136Z,7.60
2023-03-17T02:03:52.016Z,7.60
2023-03-17T02:07:55.681Z,7.60
2023-03-17T02:12:01.192Z,7.60
2023-03-17T02:16:04.271Z,7.60
2023-03-17T02:20:45.736Z,7.60
2023-03-17T02:24:52.687Z,7.60
2023-03-17T02:28:55.749Z,7.50
2023-03-17T02:32:58.757Z,7.50
2023-03-17T02:37:01.810Z,7.50
2023-03-17T02:41:09.790Z,7.50
2023-03-17T02:45:14.346Z,7.50
2023-03-17T02:49:18.452Z,7.50
2023-03-17T02:53:23.405Z,7.50
2023-03-17T02:57:27.851Z,7.50
2023-03-17T03:01:30.970Z,7.50
2023-03-17T03:05:34.086Z,7.50
2023-03-17T03:09:37.403Z,7.50
2023-03-17T03:13:42.210Z,7.50
2023-03-17T03:17:45.570Z,7.50
2023-03-17T03:21:48.521Z,7.50
2023-03-17T03:25:51.534Z,7.50
2023-03-17T03:29:56.916Z,7.50
2023-03-17T03:33:59.857Z,7.50
2023-03-17T03:38:03.120Z,7.50
2023-03-17T03:42:07.057Z,7.50
2023-03-17T03:46:11.540Z,7.50
2023-03-17T03:50:14.939Z,7.40
2023-03-17T03:54:17.921Z,7.40
2023-03-17T03:58:21.014Z,7.30
2023-03-17T04:02:25.600Z,7.30
2023-03-17T04:06:28.778Z,7.30
2023-03-17T04:10:32.080Z,7.30
2023-03-17T04:14:35.378Z,7.30
2023-03-17T04:18:39.892Z,7.30
2023-03-17T04:22:43.500Z,7.30
2023-03-17T04:26:46.779Z,7.30
2023-03-17T04:30:49.795Z,7.30
2023-03-17T04:34:54.201Z,7.40
2023-03-17T04:38:57.148Z,7.30
2023-03-17T04:43:02.953Z,7.40
2023-03-17T04:47:06.683Z,7.40
2023-03-17T04:51:11.961Z,7.30
2023-03-17T04:55:15.007Z,7.30
2023-03-17T04:59:18.000Z,7.30
2023-03-17T05:03:28.649Z,7.20
2023-03-17T05:07:34.198Z,7.20
2023-03-17T05:11:37.362Z,7.20
2023-03-17T05:15:40.727Z,7.20
2023-03-17T05:19:43.898Z,7.20
2023-03-17T05:23:48.234Z,7.20
2023-03-17T05:27:51.374Z,7.20
2023-03-17T05:31:56.459Z,7.30
2023-03-17T05:35:59.544Z,7.20
2023-03-17T05:40:04.038Z,7.20
2023-03-17T05:44:07.116Z,7.20
2023-03-17T05:48:10.099Z,7.20
2023-03-17T05:52:13.157Z,7.20
2023-03-17T05:56:17.510Z,7.20
2023-03-17T06:00:21.793Z,7.20
2023-03-17T06:04:24.737Z,7.20
2023-03-17T06:08:28.748Z,7.20
2023-03-17T06:12:33.111Z,7.20
2023-03-17T06:16:36.751Z,7.30
2023-03-17T06:20:39.776Z,7.30
2023-03-17T06:24:42.752Z,7.50
2023-03-17T06:28:47.124Z,7.70
2023-03-17T06:32:50.339Z,7.90
2023-03-17T06:36:54.042Z,8.10
2023-03-17T06:40:57.967Z,8.30
2023-03-17T06:45:02.360Z,8.50
2023-03-17T06:49:05.624Z,8.70
2023-03-17T06:53:08.817Z,8.80
2023-03-17T06:57:12.489Z,8.90
2023-03-17T07:01:17.833Z,9.00
2023-03-17T07:05:20.954Z,9.10
2023-03-17T07:09:23.942Z,9.20
2023-03-17T07:13:27.325Z,9.30
2023-03-17T07:17:31.790Z,9.40
2023-03-17T07:21:34.826Z,9.60
2023-03-17T07:25:39.224Z,9.80
2023-03-17T07:29:42.205Z,10.10
2023-03-17T07:33:47.003Z,10.40
2023-03-17T07:37:50.128Z,10.80
2023-03-17T07:41:55.369Z,11.10
2023-03-17T07:45:59.056Z,11.40
2023-03-17T07:50:03.675Z,11.60
2023-03-17T07:54:06.731Z,11.70
2023-03-17T07:58:10.605Z,11.70
2023-03-17T08:02:16.885Z,11.80
2023-03-17T08:06:21.685Z,11.80
2023-03-17T08:10:24.705Z,11.90
2023-03-17T08:14:29.821Z,12.00
2023-03-17T08:18:32.822Z,12.20
2023-03-17T08:22:37.273Z,12.30
2023-03-17T08:26:40.333Z,12.40
2023-03-17T08:30:44.774Z,12.70
2023-03-17T08:34:48.485Z,12.80
2023-03-17T08:38:53.388Z,12.90
2023-03-17T08:43:05.454Z,12.90
2023-03-17T08:47:08.685Z,13.10
2023-03-17T08:51:12.483Z,13.20
2023-03-17T08:55:17.783Z,13.40
2023-03-17T08:59:20.787Z,13.60
2023-03-17T09:03:23.753Z,14.10
2023-03-17T09:07:26.791Z,14.20
2023-03-17T09:11:32.739Z,14.60
2023-03-17T09:15:36.781Z,14.90
2023-03-17T09:19:40.484Z,15.20
2023-03-17T09:23:44.278Z,15.50
2023-03-17T09:27:48.516Z,15.70
2023-03-17T09:31:51.543Z,15.90
2023-03-17T09:35:56.994Z,16.20
2023-03-17T09:39:59.843Z,16.50
2023-03-17T09:44:09.862Z,16.80
2023-03-17T09:48:19.541Z,17.00
2023-03-17T09:52:25.797Z,17.20
2023-03-17T09:56:29.061Z,17.20
2023-03-17T10:00:34.943Z,17.20
2023-03-17T10:04:38.331Z,17.20
2023-03-17T10:08:45.598Z,17.20
2023-03-17T10:12:54.685Z,17.20
2023-03-17T10:17:01.858Z,17.10
2023-03-17T10:21:06.004Z,17.00
2023-03-17T10:25:13.940Z,17.00
2023-03-17T10:29:26.419Z,17.00
2023-03-17T10:33:31.305Z,17.00
2023-03-17T10:37:36.686Z,17.10
2023-03-17T10:41:41.436Z,17.20
2023-03-17T10:45:48.059Z,17.30
2023-03-17T10:49:52.505Z,17.40
2023-03-17T10:53:55.319Z,17.50
2023-03-17T10:58:02.280Z,17.60
2023-03-17T11:02:09.352Z,17.70
2023-03-17T11:06:14.364Z,17.80
2023-03-17T11:10:19.450Z,17.80
2023-03-17T11:14:27.131Z,17.90
2023-03-17T11:18:32.921Z,18.00
2023-03-17T11:22:40.075Z,18.10
2023-03-17T11:26:56.418Z,18.20
2023-03-17T11:31:03.151Z,18.50
2023-03-17T11:35:20.371Z,18.50
2023-03-17T11:39:27.243Z,18.60
2023-03-17T11:43:35.150Z,18.70
2023-03-17T11:47:45.037Z,18.70
2023-03-17T11:51:54.852Z,18.80
2023-03-17T11:56:01.493Z,18.90
2023-03-17T12:00:05.578Z,19.00
2023-03-17T12:04:12.208Z,19.10
2023-03-17T12:08:21.526Z,19.10
2023-03-17T12:12:29.338Z,19.20
2023-03-17T12:16:34.355Z,19.30
2023-03-17T12:20:43.691Z,19.20
2023-03-17T12:24:49.996Z,19.30
2023-03-17T12:28:57.699Z,19.20
2023-03-17T12:33:05.882Z,19.20
2023-03-17T12:37:09.777Z,19.30
2023-03-17T12:41:24.384Z,19.40
2023-03-17T12:45:39.117Z,19.40
2023-03-17T12:50:06.970Z,19.40
2023-03-17T12:54:14.073Z,19.40
2023-03-17T12:58:25.873Z,19.30
2023-03-17T13:02:37.073Z,19.20
2023-03-17T13:06:42.657Z,19.10
2023-03-17T13:10:48.815Z,18.90
2023-03-17T13:14:56.171Z,18.90
2023-03-17T13:19:14.776Z,18.70
2023-03-17T13:23:18.829Z,18.60
2023-03-17T13:27:44.265Z,18.60
2023-03-17T13:31:47.377Z,18.60
2023-03-17T13:36:00.577Z,18.40
2023-03-17T13:40:14.667Z,18.40
2023-03-17T13:44:25.547Z,18.30
2023-03-17T13:48:33.822Z,18.40
2023-03-17T13:52:42.478Z,18.30
2023-03-17T13:56:49.063Z,18.30
2023-03-17T14:00:57.751Z,18.30
2023-03-17T14:05:03.243Z,18.20
2023-03-17T14:09:19.757Z,18.20
2023-03-17T14:13:24.058Z,18.10
2023-03-17T14:17:29.308Z,18.10
2023-03-17T14:21:33.967Z,18.10
2023-03-17T14:25:39.365Z,18.10
2023-03-17T14:29:44.648Z,18.20
2023-03-17T14:33:47.479Z,18.20
2023-03-17T14:37:50.354Z,18.20
2023-03-17T14:42:01.829Z,18.20
2023-03-17T14:46:09.260Z,18.20
2023-03-17T14:50:15.915Z,18.30
2023-03-17T14:54:20.264Z,18.30
2023-03-17T14:58:25.654Z,18.30
2023-03-17T15:02:32.122Z,18.30
2023-03-17T15:06:37.508Z,18.30
2023-03-17T15:10:42.734Z,18.30
2023-03-17T15:14:47.302Z,18.20
2023-03-17T15:18:51.812Z,18.20
2023-03-17T15:22:58.262Z,18.10
2023-03-17T15:27:02.177Z,18.00
2023-03-17T15:31:12.696Z,18.00
2023-03-17T15:35:25.652Z,17.90
2023-03-17T15:39:31.070Z,17.90
2023-03-17T15:43:34.900Z,17.80
2023-03-17T15:47:41.857Z,17.80
2023-03-17T15:51:44.632Z,17.70
2023-03-17T15:55:47.530Z,17.70
2023-03-17T15:59:50.690Z,17.50
2023-03-17T16:03:54.977Z,17.40
2023-03-17T16:07:58.156Z,17.30
2023-03-17T16:12:00.942Z,17.20
2023-03-17T16:16:05.670Z,17.10
2023-03-17T16:20:17.548Z,17.00
2023-03-17T16:24:21.759Z,16.90
2023-03-17T16:28:25.338Z,16.70
2023-03-17T16:32:28.197Z,16.60
2023-03-17T16:36:34.480Z,16.50
2023-03-17T16:40:38.454Z,16.40
2023-03-17T16:44:41.630Z,16.30
2023-03-17T16:48:51.037Z,16.20
2023-03-17T16:52:55.540Z,16.10
2023-03-17T16:56:58.319Z,16.00
2023-03-17T17:01:02.895Z,15.90
2023-03-17T17:05:07.094Z,15.80
2023-03-17T17:09:11.216Z,15.70
2023-03-17T17:13:14.205Z,15.60
2023-03-17T17:17:17.006Z,15.50
2023-03-17T17:21:20.030Z,15.40
2023-03-17T17:25:24.657Z,15.40
2023-03-17T17:29:27.475Z,15.30
2023-03-17T17:33:30.315Z,15.30
2023-03-17T17:37:33.143Z,15.20
2023-03-17T17:41:37.297Z,15.20
2023-03-17T17:45:40.229Z,15.10
2023-03-17T17:49:43.307Z,15.00
2023-03-17T17:53:46.136Z,15.00
2023-03-17T17:57:52.419Z,15.00
2023-03-17T18:01:55.702Z,14.90
2023-03-17T18:05:59.124Z,14.80
2023-03-17T18:10:02.277Z,14.80
2023-03-17T18:14:06.534Z,14.80
2023-03-17T18:18:09.928Z,14.80
2023-03-17T18:22:12.751Z,14.80
2023-03-17T18:26:16.350Z,14.70
2023-03-17T18:30:23.443Z,14.70
2023-03-17T18:34:27.900Z,14.70
2023-03-17T18:38:31.701Z,14.60
2023-03-17T18:42:34.556Z,14.50
2023-03-17T18:46:39.029Z,14.50
2023-03-17T18:50:41.851Z,14.40
2023-03-17T18:54:44.660Z,14.40
2023-03-17T18:58:47.476Z,14.40
2023-03-17T19:02:51.676Z,14.30
2023-03-17T19:06:54.501Z,14.30
2023-03-17T19:10:57.654Z,14.30
2023-03-17T19:15:00.482Z,14.30
2023-03-17T19:19:04.732Z,14.30
2023-03-17T19:23:07.968Z,14.20
2023-03-17T19:27:10.987Z,14.20
2023-03-17T19:31:14.145Z,14.10
2023-03-17T19:35:18.484Z,14.10
2023-03-17T19:39:21.649Z,14.00
2023-03-17T19:43:39.359Z,13.90
2023-03-17T19:47:43.438Z,13.90
2023-03-17T19:51:49.109Z,13.90
2023-03-17T19:55:51.987Z,13.90
2023-03-17T19:59:54.803Z,13.90
2023-03-17T20:03:57.622Z,13.90
2023-03-17T20:08:01.794Z,13.80
2023-03-17T20:12:04.818Z,13.80
2023-03-17T20:16:08.200Z,13.70
2023-03-17T20:20:11.729Z,13.70
2023-03-17T20:24:16.479Z,13.60
2023-03-17T20:28:19.982Z,13.60
2023-03-17T20:32:22.806Z,13.60
2023-03-17T20:36:26.030Z,13.50
2023-03-17T20:40:30.484Z,13.50
2023-03-17T20:44:33.443Z,13.50
2023-03-17T20:48:37.219Z,13.40
2023-03-17T20:52:41.075Z,13.30
2023-03-17T20:56:45.693Z,13.30
2023-03-17T21:00:50.462Z,13.30
2023-03-17T21:04:53.431Z,13.30
2023-03-17T21:08:57.770Z,13.30
2023-03-17T21:13:01.901Z,13.20
2023-03-17T21:17:05.155Z,13.20
2023-03-17T21:21:08.008Z,13.20
2023-03-17T21:25:11.621Z,13.10
2023-03-17T21:29:15.974Z,13.10
2023-03-17T21:33:18.806Z,13.00
2023-03-17T21:37:21.639Z,12.90
2023-03-17T21:41:30.321Z,12.80
2023-03-17T21:45:35.096Z,12.80
2023-03-17T21:49:37.937Z,12.80
2023-03-17T21:53:40.702Z,12.80
2023-03-17T21:57:43.533Z,12.80
2023-03-17T22:01:47.852Z,12.80
2023-03-17T22:05:50.868Z,12.80
2023-03-17T22:09:54.008Z,12.70
2023-03-17T22:13:59.088Z,12.70
2023-03-17T22:18:03.393Z,12.70
2023-03-17T22:22:06.482Z,12.70
2023-03-17T22:26:10.612Z,12.70
2023-03-17T22:30:14.863Z,12.70
2023-03-17T22:34:19.555Z,12.60
2023-03-17T22:38:24.871Z,12.60
2023-03-17T22:42:29.307Z,12.60
2023-03-17T22:46:35.027Z,12.60
2023-03-17T22:50:39.313Z,12.60
2023-03-17T22:54:42.124Z,12.60
2023-03-17T22:58:45.714Z,12.70
2023-03-17T23:02:48.597Z,12.70
2023-03-17T23:06:53.574Z,12.70
2023-03-17T23:10:57.433Z,12.70
2023-03-17T23:15:00.670Z,12.70
2023-03-17T23:19:03.891Z,12.60
2023-03-17T23:23:08.526Z,12.60
2023-03-17T23:27:11.638Z,12.60
2023-03-17T23:31:15.934Z,12.60
2023-03-17T23:35:19.564Z,12.60
2023-03-17T23:39:23.821Z,12.60
2023-03-17T23:43:27.437Z,12.60
2023-03-17T23:47:30.232Z,12.60
2023-03-17T23:51:33.434Z,12.50
2023-03-17T23:55:37.652Z,12.50
2023-03-17T23:59:40.594Z,12.50
